Latest Coastal Weather Observations for Cape Willoughby

IDS60701

Issued at 7:51 am CST Friday 28 April 2017 (issued every 10 minutes, with the page automatically refreshed every 10 minutes)

About coastal observations | Map of coastal stations | Coastal observations for SA | Marine services | Other Formats
Station Details ID: 022803 Name: CAPE WILLOUGHBY Lat: -35.84 Lon: 138.13 Height: 55.0 m
Data from the previous 72 hours. | See also: Recent months at Cape Willoughby
Date/Time
CST
Temp
°C
Wind Pressure Rain since
9am
mm
Weather Cloud Vis
km
Sea
Height
m
Swell
Dir  Spd
kts
Gust
kts
hPa Trend Height
m
Period
s
Dir
28/07:00am 13.6 W 9 12 1026.9 - - - - - - - - -
28/06:30am 13.4 W 11 13 1026.8 - - - - - - - - -
28/06:00am 13.2 W 10 14 1026.6 - - - - - - - - -
28/05:30am 13.1 WNW 12 15 1026.4 - - - - - - - - -
28/05:00am 13.1 W 13 18 1026.3 - - - - - - - - -
28/04:30am 12.6 WNW 12 15 1026.1 - - - - - - - - -
28/04:00am 12.8 WNW 11 14 1026.0 - - - - - - - - -
28/03:30am 12.9 WNW 12 15 1025.9 - - - - - - - - -
28/03:00am 12.8 WNW 11 14 1026.1 - - - - - - - - -
28/02:30am 12.9 WNW 11 14 1026.3 - - - - - - - - -
28/02:00am 12.8 WNW 11 13 1026.5 - - - - - - - - -
28/01:30am 13.2 WNW 14 - 1026.5 - - - - - - - - -
 
Date/Time
CST
Temp
°C
Wind Pressure Rain since
9am
mm
Weather Cloud Vis
km
Sea
Height
m
Swell
Dir  Spd
kts
Gust
kts
hPa Trend Height
m
Period
s
Dir
27/10:30pm 12.8 WNW 10 13 1027.2 - - - - - - - - -
27/10:00pm 12.9 WNW 11 14 1027.2 - - - - - - - - -
27/09:30pm 12.8 WNW 9 11 1027.1 - - - - - - - - -
27/09:00pm 12.7 W 7 8 1027.4 - - Rain - - - - - -
27/08:30pm 12.8 WNW 10 12 1026.9 - - - - - - - - -
27/08:00pm 12.8 W 5 6 1027.0 - - - - - - - - -
27/07:30pm 13.3 SW 10 15 1027.1 - - - - - - - - -
27/07:00pm 13.2 W 8 9 1027.0 - - - - - - - - -
27/06:30pm 13.4 W 8 9 1026.8 - - - - - - - - -
27/06:00pm 13.9 WSW 9 13 1026.5 - - Recent precip. - - - - - -
27/05:30pm 14.9 WSW 8 10 1026.4 - - - - - - - - -
27/05:00pm 15.2 SW 11 14 1026.4 - - - - - - - - -
27/04:30pm 15.3 WSW 8 11 1026.5 - - - - - - - - -
27/04:00pm 15.3 SW 12 15 1026.6 - - - - - - - - -
27/03:30pm 15.2 SW 12 16 1026.5 - - - - - - - - -
27/03:00pm 15.6 SW 14 18 1026.5 - - - - - - - - -
27/02:30pm 15.8 SW 10 15 1026.3 - - - - - - - - -
27/02:00pm 15.5 SSW 7 13 1026.3 - 0.0 - - - - - - -
27/01:30pm 15.3 SSW 6 10 1026.3 - 0.0 - - - - - - -
27/01:00pm 15.4 SSW 7 13 1026.6 - 0.0 - - - - - - -
27/12:30pm 15.2 SW 9 12 1027.2 - 0.0 - - - - - - -
27/12:00pm 15.0 W 7 10 1027.7 - 0.0 - - - - - - -
27/11:30am 14.5 SW 5 9 1028.0 - 0.0 - - - - - - -
27/11:00am 13.5 WNW 10 13 1028.2 - 0.0 - - - - - - -
27/10:30am 14.8 WSW 12 17 1028.2 - 0.0 - - - - - - -
27/10:00am 14.4 W 8 12 1028.3 - 0.0 - - - - - - -
27/09:30am 13.8 WSW 7 9 1028.5 - 0.0 - - - - - - -
27/09:00am 13.1 W 8 10 1028.4 - - - - - - - - -
27/08:30am 12.2 W 10 13 1028.3 - - - - - - - - -
27/08:00am 12.3 WNW 9 14 1027.6 - - - - - - - - -
27/07:30am 12.8 WSW 7 11 1027.3 - - - - - - - - -
27/07:00am 11.8 W 9 12 1027.0 - - - - - - - - -
27/06:30am 11.9 W 7 9 1026.8 - - - - - - - - -
27/06:00am 12.1 W 6 10 1026.6 - - - - - - - - -
27/05:30am 12.3 W 7 10 1026.5 - - - - - - - - -
27/05:00am 13.7 SSW 7 11 1026.2 - - - - - - - - -
27/04:30am 13.6 S 10 14 1025.8 - - - - - - - - -
27/04:00am 13.7 SSW 12 16 1025.6 - - - - - - - - -
27/03:30am 13.5 S 15 21 1025.5 - - - - - - - - -
27/03:00am 13.6 S 13 20 1025.6 - 0.0 - - - - - - -
27/02:30am 13.6 S 13 17 1025.9 - - - - - - - - -
27/02:00am 13.8 S 12 17 1025.9 - - - - - - - - -
27/01:30am 13.8 S 13 17 1026.0 - - - - - - - - -
27/01:00am 13.2 S 14 22 1026.1 - - - - - - - - -
27/12:55am 13.4 S 15 22 1025.9 - - - - - - - - -
27/12:30am 11.9 W 6 10 1026.1 - - - - - - - - -
27/12:00am 12.5 SW 9 13 1025.9 - - - - - - - - -
 
Date/Time
CST
Temp
°C
Wind Pressure Rain since
9am
mm
Weather Cloud Vis
km
Sea
Height
m
Swell
Dir  Spd
kts
Gust
kts
hPa Trend Height
m
Period
s
Dir
26/11:30pm 13.3 SW 14 19 1025.7 - - - - - - - - -
26/11:00pm 13.6 SSW 13 22 1025.4 - - - - - - - - -
26/10:30pm 13.9 SSW 13 19 1025.4 - - - - - - - - -
26/10:00pm 13.7 SSW 13 20 1025.4 - - - - - - - - -
26/09:30pm 13.6 SSW 16 20 1025.3 - - - - - - - - -
26/09:00pm 13.4 SSW 15 21 1025.0 - - - - - - - - -
26/08:30pm 13.6 SSW 15 22 1024.9 - - - - - - - - -
26/08:00pm 13.7 S 15 22 1024.9 - - - - - - - - -
26/07:30pm 13.4 SSW 17 22 1024.6 - - - - - - - - -
26/07:06pm 13.1 S 17 28 1024.7 - 0.0 - - - - - - -
26/07:00pm 13.0 S 18 28 1024.3 - 0.0 - - - - - - -
26/06:57pm 12.8 SSW 15 28 1024.2 - 0.0 - - - - - - -
26/06:30pm 13.1 SSW 16 22 1024.1 - 0.0 - - - - - - -
26/06:00pm 13.3 S 14 20 1024.0 - 0.0 - - - - - - -
26/05:30pm 13.2 S 13 18 1023.7 - 0.0 - - - - - - -
26/05:00pm 13.4 S 13 20 1023.5 - 0.0 - - - - - - -
26/04:30pm 13.4 S 14 20 1023.3 - 0.0 - - - - - - -
26/04:00pm 13.5 S 15 22 1023.4 - 0.0 - - - - - - -
26/03:30pm 13.4 S 18 25 1023.1 - 0.0 - - - - - - -
26/03:00pm 13.4 S 18 24 1022.7 - 0.0 - - - - - - -
26/02:30pm 13.3 S 19 24 1022.5 - 0.0 - - - - - - -
26/02:00pm 13.6 S 15 21 1022.3 - 0.0 - - - - - - -
26/01:30pm 13.4 S 20 26 1022.2 - 0.0 - - - - - - -
26/01:00pm 13.1 S 24 30 1022.0 - 0.0 - - - - - - -
26/12:30pm 12.8 SSE 19 26 1022.1 - 0.0 - - - - - - -
26/12:00pm 13.3 S 20 26 1022.2 - 0.0 - - - - - - -
26/11:30am 13.2 S 20 27 1022.1 - 0.0 - - - - - - -
26/11:00am 12.9 S 22 29 1022.0 - 0.0 - - - - - - -
26/10:30am 13.2 S 22 29 1021.6 - 0.0 - - - - - - -
26/10:00am 12.8 S 25 30 1021.3 - 0.0 - - - - - - -
26/09:30am 12.4 S 23 34 1020.6 - 0.0 - - - - - - -
26/09:29am 12.8 S 23 33 1020.6 - 0.0 - - - - - - -
26/09:00am 12.6 S 27 36 1020.2 - - - - - - - - -
26/08:49am 12.7 S 26 37 1020.1 - - - - - - - - -
26/08:30am 12.6 S 30 39 1019.5 - - - - - - - - -
26/08:21am 12.5 S 26 39 1019.0 - - - - - - - - -
26/08:00am 12.9 S 23 35 1019.2 - - - - - - - - -
26/07:37am 12.8 S 25 35 1018.5 - - - - - - - - -
26/07:30am 12.7 S 25 33 1018.5 - - - - - - - - -
26/07:07am 12.4 S 27 47 1017.4 - - - - - - - - -
26/07:03am 12.8 S 24 35 1018.1 - - - - - - - - -
26/07:00am 12.8 S 24 34 1017.9 - - - - - - - - -
26/06:38am 12.5 S 28 38 1017.6 - - - - - - - - -
26/06:30am 12.4 S 29 39 1017.3 - - - - - - - - -
26/06:02am 12.0 S 28 38 1017.3 - - - - - - - - -
26/06:00am 11.8 S 29 38 1017.1 - - - - - - - - -
26/05:57am 12.1 S 27 38 1016.5 - - - - - - - - -
26/05:49am 12.2 S 24 38 1017.1 - - - - - - - - -
26/05:47am 12.4 S 25 38 1016.9 - - - - - - - - -
26/05:30am 11.4 S 30 43 1016.1 - - - - - - - - -
26/05:28am 11.6 SSW 28 43 1015.9 - - - - - - - - -
26/05:25am 12.2 SSW 26 37 1016.1 - - - - - - - - -
26/05:10am 11.6 SSW 24 37 1016.4 - - - - - - - - -
26/05:01am 12.2 S 27 37 1015.7 - - - - - - - - -
26/05:00am 12.3 S 26 35 1015.8 - - - - - - - - -
26/04:30am 11.8 S 28 43 1014.7 - - - - - - - - -
26/04:00am 11.8 S 32 48 1015.0 - - - - - - - - -
26/03:59am 11.9 S 34 50 1015.0 - - - - - - - - -
26/03:58am 11.9 S 36 50 1015.0 - - - - - - - - -
26/03:54am 11.0 SSW 37 50 1014.6 - - - - - - - - -
26/03:51am 11.3 SSW 35 50 1013.7 - - - - - - - - -
26/03:30am 12.3 SSW 32 44 1014.4 - - - - - - - - -
26/03:28am 12.2 SSW 34 44 1014.3 - - - - - - - - -
26/03:20am 12.1 SSW 27 44 1014.0 - - - - - - - - -
26/03:14am 12.5 SSW 30 42 1014.5 - - - - - - - - -
26/03:13am 12.4 SSW 32 43 1014.5 - - - - - - - - -
26/03:00am 12.0 SSW 34 42 1014.1 - - - - - - - - -
26/02:51am 12.3 SSW 26 41 1013.9 - - - - - - - - -
26/02:48am 12.7 SSW 26 40 1014.1 - - - - - - - - -
26/02:46am 12.5 SSW 28 40 1014.1 - - - - - - - - -
26/02:30am 12.0 SSW 34 45 1013.6 - - - - - - - - -
26/02:09am 12.4 SSW 35 46 1013.5 - - - - - - - - -
26/02:00am 12.3 SSW 36 44 1013.0 - - - - - - - - -
26/01:31am 12.1 SSW 32 42 1012.7 - - - - - - - - -
26/01:30am 12.0 SSW 32 41 1012.9 - - - - - - - - -
26/01:10am 11.4 SSW 36 47 1013.0 - - - - - - - - -
26/01:09am 11.1 SSW 36 47 1012.8 - - - - - - - - -
26/01:06am 11.7 SSW 35 47 1012.3 - - - - - - - - -
26/01:00am 12.3 SW 28 39 1012.5 - - - - - - - - -
26/12:56am 12.2 SW 26 38 1012.9 - - - - - - - - -
26/12:49am 11.6 SW 31 44 1012.9 - - - - - - - - -
26/12:30am 11.4 SW 36 48 1012.6 - 5.2 - - - - - - -
26/12:22am 10.9 SW 33 50 1012.2 - 5.0 - - - - - - -
26/12:21am 12.4 SW 33 50 1012.0 - 4.6 - - - - - - -
26/12:19am 13.2 SW 30 43 1012.0 - 4.6 - - - - - - -
26/12:00am 13.3 SSW 30 38 1012.2 - 4.6 Recent precip. - - - - - -
 
Date/Time
CST
Temp
°C
Wind Pressure Rain since
9am
mm
Weather Cloud Vis
km
Sea
Height
m
Swell
Dir  Spd
kts
Gust
kts
hPa Trend Height
m
Period
s
Dir
25/11:32pm 13.4 SW 30 44 1011.9 - 4.4 - - - - - - -
25/11:30pm 13.8 SSW 30 36 1011.9 - 4.4 - - - - - - -
25/11:00pm 14.0 SW 32 43 1011.6 - 4.4 - - - - - - -
25/10:31pm 14.3 SW 27 37 1011.5 - 4.4 - - - - - - -
25/10:30pm 14.3 SW 27 36 1011.7 - 4.4 - - - - - - -
25/10:00pm 14.1 SW 33 43 1011.1 - 4.4 - - - - - - -
25/09:46pm 14.3 SW 30 41 1010.8 - 4.4 - - - - - - -
25/09:30pm 13.2 SSW 27 35 1011.1 - 4.4 - - - - - - -
25/09:17pm 13.7 WSW 17 29 1011.4 - 3.0 - - - - - - -
25/09:00pm 13.4 W 14 20 1011.4 - 0.6 - - - - - - -
25/08:30pm 14.2 WNW 14 19 1011.4 - 0.6 - - - - - - -
25/08:00pm 14.2 WNW 12 16 1011.6 - 0.6 - - - - - - -
25/07:30pm 14.1 WNW 12 16 1011.5 - 0.6 - - - - - - -
25/07:00pm 14.3 WNW 10 14 1011.6 - 0.6 - - - - - - -
25/06:30pm 14.6 W 14 20 1011.5 - 0.6 - - - - - - -
25/06:00pm 15.0 WSW 19 28 1011.3 - 0.6 - - - - - - -
25/05:56pm 15.0 WSW 18 28 1011.2 - 0.6 - - - - - - -
25/05:30pm 15.0 W 13 21 1010.9 - 0.6 - - - - - - -
25/05:00pm 15.7 W 12 15 1010.9 - 0.6 - - - - - - -
25/04:30pm 15.8 W 11 18 1010.9 - 0.6 - - - - - - -
25/04:00pm 15.0 WSW 10 14 1011.1 - 0.6 - - - - - - -
25/03:30pm 16.5 W 12 17 1011.1 - 0.4 - - - - - - -
25/03:00pm 16.3 W 14 18 1011.2 - 0.4 - - - - - - -
25/02:30pm 15.9 WSW 17 21 1011.1 - 0.4 - - - - - - -
25/02:00pm 15.5 WSW 20 27 1011.4 - 0.4 - - - - - - -
25/01:30pm 16.5 SW 20 29 1011.4 - 0.0 - - - - - - -
25/01:23pm 17.7 SW 16 26 1011.5 - 0.0 - - - - - - -
25/01:00pm 17.9 SW 12 19 1011.7 - 0.0 - - - - - - -
25/12:30pm 18.5 SW 11 18 1011.9 - 0.0 - - - - - - -
25/12:00pm 18.0 SW 13 17 1012.3 - 0.0 - - - - - - -
25/11:30am 18.0 SW 13 18 1012.7 - 0.0 - - - - - - -
25/11:00am 17.7 WSW 14 18 1012.9 - 0.0 - - - - - - -
25/10:30am 17.3 WSW 15 20 1013.1 - 0.0 - - - - - - -
25/10:00am 17.2 WSW 13 18 1013.4 - 0.0 - - - - - - -
25/09:30am 17.0 WSW 14 19 1013.4 - 0.0 - - - - - - -
25/09:00am 17.0 W 11 14 1013.5 - - - - - - - - -
25/08:30am 16.4 WSW 10 14 1013.3 - - - - - - - - -
25/08:00am 14.9 W 11 14 1012.9 - - - - - - - - -

Other Formats:

Comma delimited format used in spreadsheet applications
http://www.bom.gov.au/fwo/IDS60701/IDS60701.94822.axf

JavaScript Object Notation format (JSON) in row-major order
http://www.bom.gov.au/fwo/IDS60701/IDS60701.94822.json